Terminal Aerodrome Forecast
Issued by NWS

Home | Current Version | Previous Version | Text Only | Print | Product List | Glossary On
Versions: 1 2 3 4 5 6 7 8 9 10 11 12 13 14 15 16 17 18 19 20
000
FTUS41 KOKX 052321
TAFSWF
TAF
KSWF 052321Z 0600/0706 32005KT P6SM BKN100
     FM060400 02006KT P6SM VCSH SCT040 BKN080
     FM061000 06006KT P6SM FEW040 BKN080
     FM061800 VRB05KT P6SM SCT040 BKN080
     FM070000 VRB02KT P6SM SCT080 BKN250
      AMD NOT SKED=

USA.gov is the U.S. government's official web portal to all federal, state and local government web resources and services.